createdAt,value
2022-08-17T00:00:07.233Z,5.20
2022-08-17T00:03:15.439Z,5.40
2022-08-17T00:05:54.307Z,5.55
2022-08-17T00:08:25.920Z,5.65
2022-08-17T00:10:55.409Z,5.40
2022-08-17T00:13:30.317Z,5.90
2022-08-17T00:16:01.014Z,5.40
2022-08-17T00:18:57.453Z,5.10
2022-08-17T00:21:23.943Z,5.20
2022-08-17T00:23:55.091Z,5.40
2022-08-17T00:26:43.607Z,5.38
2022-08-17T00:29:16.469Z,5.95
2022-08-17T00:31:47.807Z,5.32
2022-08-17T00:34:15.307Z,6.07
2022-08-17T00:36:42.491Z,5.65
2022-08-17T00:39:10.055Z,5.40
2022-08-17T00:41:42.186Z,5.55
2022-08-17T00:44:12.454Z,5.63
2022-08-17T00:46:42.297Z,5.63
2022-08-17T00:49:11.261Z,5.70
2022-08-17T00:51:53.021Z,5.38
2022-08-17T00:54:25.669Z,5.72
2022-08-17T00:57:04.967Z,5.75
2022-08-17T00:59:39.282Z,5.50
2022-08-17T01:02:09.877Z,5.63
2022-08-17T01:04:37.907Z,5.25
2022-08-17T01:07:06.103Z,5.28
2022-08-17T01:09:34.313Z,5.43
2022-08-17T01:12:02.084Z,5.32
2022-08-17T01:14:29.293Z,4.78
2022-08-17T01:16:56.993Z,5.32
2022-08-17T01:19:29.020Z,5.20
2022-08-17T01:22:11.880Z,5.32
2022-08-17T01:24:47.767Z,5.88
2022-08-17T01:27:18.460Z,5.90
2022-08-17T01:29:53.613Z,5.95
2022-08-17T01:32:20.921Z,6.18
2022-08-17T01:34:50.502Z,6.30
2022-08-17T01:37:21.231Z,7.20
2022-08-17T01:39:57.753Z,7.45
2022-08-17T01:42:25.147Z,7.10
2022-08-17T01:44:58.248Z,6.22
2022-08-17T01:47:26.228Z,7.40
2022-08-17T01:49:53.723Z,6.90
2022-08-17T01:52:22.422Z,6.82
2022-08-17T01:54:51.546Z,7.97
2022-08-17T01:57:18.768Z,7.88
2022-08-17T01:59:46.232Z,7.57
2022-08-17T02:02:31.395Z,7.15
2022-08-17T02:04:59.851Z,7.18
2022-08-17T02:07:27.401Z,8.32
2022-08-17T02:09:54.980Z,8.50
2022-08-17T02:12:47.940Z,8.32
2022-08-17T02:15:12.678Z,8.30
2022-08-17T02:17:41.140Z,8.50
2022-08-17T02:20:10.099Z,8.82
2022-08-17T02:22:40.627Z,8.23
2022-08-17T02:25:09.961Z,9.23
2022-08-17T02:27:39.396Z,8.80
2022-08-17T02:30:49.895Z,9.65
2022-08-17T02:32:56.890Z,10.02
2022-08-17T02:35:24.059Z,9.40
2022-08-17T02:37:55.666Z,9.52
2022-08-17T02:40:36.145Z,10.32
2022-08-17T02:43:04.606Z,9.68
2022-08-17T02:45:31.759Z,10.73
2022-08-17T02:47:59.135Z,10.95
2022-08-17T02:50:26.616Z,11.07
2022-08-17T02:53:02.244Z,11.38
2022-08-17T02:55:33.707Z,9.77
2022-08-17T02:58:02.526Z,9.93
2022-08-17T03:00:36.177Z,11.50
2022-08-17T03:03:06.115Z,10.75
2022-08-17T03:05:37.448Z,10.40
2022-08-17T03:08:06.466Z,11.32
2022-08-17T03:10:34.152Z,11.65
2022-08-17T03:13:02.015Z,11.05
2022-08-17T03:15:32.112Z,9.35
2022-08-17T03:18:01.205Z,9.95
2022-08-17T03:20:32.420Z,10.27
2022-08-17T03:23:01.991Z,9.65
2022-08-17T03:25:39.783Z,10.50
2022-08-17T03:28:08.169Z,10.25
2022-08-17T03:30:36.718Z,9.77
2022-08-17T03:33:11.440Z,9.93
2022-08-17T03:35:40.636Z,10.13
2022-08-17T03:38:10.448Z,11.75
2022-08-17T03:40:57.288Z,10.63
2022-08-17T03:43:32.497Z,11.02
2022-08-17T03:46:34.177Z,10.63
2022-08-17T03:49:26.065Z,10.57
2022-08-17T03:52:13.836Z,10.02
2022-08-17T03:55:00.701Z,10.05
2022-08-17T03:57:31.933Z,9.77
2022-08-17T03:59:59.933Z,9.55
2022-08-17T04:02:30.136Z,8.85
2022-08-17T04:04:58.500Z,9.90
2022-08-17T04:07:28.745Z,9.30
2022-08-17T04:09:58.296Z,9.25
2022-08-17T04:12:31.324Z,9.65
2022-08-17T04:14:59.509Z,9.80
2022-08-17T04:17:28.966Z,9.38
2022-08-17T04:19:56.982Z,8.82
2022-08-17T04:22:30.099Z,9.65
2022-08-17T04:25:07.006Z,9.95
2022-08-17T04:27:34.463Z,9.30
2022-08-17T04:30:02.342Z,9.55
2022-08-17T04:33:05.090Z,10.40
2022-08-17T04:35:22.577Z,8.73
2022-08-17T04:37:50.963Z,8.95
2022-08-17T04:40:38.373Z,9.75
2022-08-17T04:43:11.622Z,9.00
2022-08-17T04:45:55.450Z,8.70
2022-08-17T04:48:29.662Z,8.73
2022-08-17T04:51:10.201Z,8.40
2022-08-17T04:53:39.666Z,8.82
2022-08-17T04:56:07.620Z,8.60
2022-08-17T04:58:39.211Z,8.90
2022-08-17T05:01:07.652Z,8.25
2022-08-17T05:03:36.040Z,9.10
2022-08-17T05:06:04.309Z,8.82
2022-08-17T05:08:31.884Z,8.88
2022-08-17T05:11:00.367Z,8.65
2022-08-17T05:13:29.882Z,8.80
2022-08-17T05:16:00.380Z,9.43
2022-08-17T05:18:29.640Z,8.88
2022-08-17T05:20:58.579Z,9.05
2022-08-17T05:23:41.993Z,9.35
2022-08-17T05:26:26.319Z,8.82
2022-08-17T05:28:59.661Z,8.38
2022-08-17T05:31:29.944Z,8.68
2022-08-17T05:33:58.756Z,8.15
2022-08-17T05:36:42.397Z,8.95
2022-08-17T05:39:16.369Z,8.57
2022-08-17T05:41:50.581Z,8.60
2022-08-17T05:44:18.036Z,8.50
2022-08-17T05:46:51.771Z,7.95
2022-08-17T05:49:27.378Z,8.02
2022-08-17T05:52:26.934Z,8.45
2022-08-17T05:55:23.465Z,8.60
2022-08-17T05:57:54.194Z,7.55
2022-08-17T06:01:11.087Z,7.65
2022-08-17T06:04:16.001Z,7.93
2022-08-17T06:07:05.448Z,8.52
2022-08-17T06:09:44.782Z,8.13
2022-08-17T06:12:33.542Z,7.30
2022-08-17T06:15:36.800Z,7.85
2022-08-17T06:18:08.212Z,7.53
2022-08-17T06:21:01.871Z,7.38
2022-08-17T06:23:40.022Z,6.70
2022-08-17T06:26:38.325Z,7.13
2022-08-17T06:29:29.694Z,6.55
2022-08-17T06:31:57.975Z,6.30
2022-08-17T06:34:25.261Z,5.78
2022-08-17T06:37:18.984Z,6.03
2022-08-17T06:40:16.049Z,6.30
2022-08-17T06:43:12.850Z,5.57
2022-08-17T06:46:16.078Z,5.63
2022-08-17T06:48:49.360Z,5.82
2022-08-17T06:51:31.265Z,5.53
2022-08-17T06:54:10.806Z,6.15
2022-08-17T06:57:05.507Z,5.70
2022-08-17T06:59:55.490Z,5.60
2022-08-17T07:02:52.015Z,5.30
2022-08-17T07:05:33.417Z,5.18
2022-08-17T07:08:07.436Z,5.20
2022-08-17T07:10:48.509Z,5.40
2022-08-17T07:13:54.684Z,5.15
2022-08-17T07:16:34.452Z,4.95
2022-08-17T07:19:01.809Z,4.82
2022-08-17T07:22:06.332Z,5.25
2022-08-17T07:24:45.389Z,4.78
2022-08-17T07:27:40.926Z,4.70
2022-08-17T07:30:28.751Z,4.95
2022-08-17T07:33:02.413Z,4.75
2022-08-17T07:35:37.559Z,4.85
2022-08-17T07:38:26.341Z,5.40
2022-08-17T07:41:04.939Z,5.00
2022-08-17T07:43:41.340Z,5.25
2022-08-17T07:46:30.231Z,5.15
2022-08-17T07:49:06.877Z,5.53
2022-08-17T07:51:39.231Z,6.10
2022-08-17T07:54:15.841Z,6.25
2022-08-17T07:56:56.178Z,6.10
2022-08-17T07:59:28.650Z,6.80
2022-08-17T08:02:19.642Z,6.97
2022-08-17T08:05:13.098Z,6.90
2022-08-17T08:08:00.681Z,7.10
2022-08-17T08:10:44.995Z,6.05
2022-08-17T08:13:21.774Z,6.05
2022-08-17T08:15:55.496Z,6.78
2022-08-17T08:18:55.652Z,6.07
2022-08-17T08:21:54.982Z,6.22
2022-08-17T08:24:37.452Z,6.47
2022-08-17T08:27:31.148Z,5.90
2022-08-17T08:30:14.546Z,5.70
2022-08-17T08:33:00.301Z,5.90
2022-08-17T08:35:37.388Z,5.72
2022-08-17T08:38:20.211Z,5.45
2022-08-17T08:41:05.738Z,5.65
2022-08-17T08:44:06.186Z,5.35
2022-08-17T08:46:52.118Z,5.68
2022-08-17T08:50:09.496Z,5.65
2022-08-17T08:52:56.589Z,5.60
2022-08-17T08:55:52.500Z,5.63
2022-08-17T08:58:31.923Z,5.10
2022-08-17T09:01:23.440Z,5.00
2022-08-17T09:04:24.714Z,4.93
2022-08-17T09:07:07.958Z,5.35
2022-08-17T09:09:35.354Z,5.57
2022-08-17T09:12:30.286Z,5.40
2022-08-17T09:15:08.294Z,4.90
2022-08-17T09:17:59.275Z,4.70
2022-08-17T09:20:50.250Z,5.10
2022-08-17T09:23:45.354Z,4.63
2022-08-17T09:26:31.310Z,5.03
2022-08-17T09:29:03.491Z,5.13
2022-08-17T09:31:47.013Z,5.32
2022-08-17T09:34:28.188Z,4.65
2022-08-17T09:37:30.461Z,4.38
2022-08-17T09:40:10.585Z,4.85
2022-08-17T09:42:47.653Z,5.03
2022-08-17T09:45:27.335Z,5.03
2022-08-17T09:48:21.394Z,4.30
2022-08-17T09:51:05.815Z,4.30
2022-08-17T09:53:37.392Z,4.40
2022-08-17T09:56:26.832Z,4.30
2022-08-17T09:59:03.491Z,4.50
2022-08-17T10:02:15.522Z,4.25
2022-08-17T10:04:54.863Z,4.47
2022-08-17T10:07:40.884Z,4.22
2022-08-17T10:10:56.716Z,3.90
2022-08-17T10:14:01.749Z,4.07
2022-08-17T10:17:03.664Z,4.13
2022-08-17T10:19:49.013Z,3.53
2022-08-17T10:23:17.975Z,3.97
2022-08-17T10:26:05.741Z,3.80
2022-08-17T10:29:10.029Z,4.03
2022-08-17T10:32:08.834Z,3.80
2022-08-17T10:35:20.789Z,4.10
2022-08-17T10:37:48.160Z,4.22
2022-08-17T10:40:18.227Z,4.00
2022-08-17T10:42:57.293Z,4.10
2022-08-17T10:46:10.703Z,4.32
2022-08-17T10:48:39.887Z,3.92
2022-08-17T10:51:10.030Z,4.13
2022-08-17T10:53:43.713Z,4.32
2022-08-17T10:56:14.113Z,4.18
2022-08-17T10:58:54.173Z,4.45
2022-08-17T11:01:38.102Z,4.53
2022-08-17T11:06:39.175Z,4.97
2022-08-17T11:09:31.019Z,5.00
2022-08-17T11:12:16.646Z,4.97
2022-08-17T11:15:24.199Z,4.82
2022-08-17T11:17:54.509Z,4.85
2022-08-17T11:20:28.281Z,4.80
2022-08-17T11:23:24.944Z,5.00
2022-08-17T11:25:55.601Z,4.78
2022-08-17T11:28:26.904Z,4.65
2022-08-17T11:30:56.510Z,4.97
2022-08-17T11:33:34.173Z,4.65
2022-08-17T11:36:16.262Z,4.50
2022-08-17T11:39:04.681Z,4.47
2022-08-17T11:41:49.089Z,6.35
2022-08-17T11:44:22.639Z,4.10
2022-08-17T11:47:28.025Z,4.13
2022-08-17T11:50:27.756Z,4.35
2022-08-17T11:52:55.987Z,3.95
2022-08-17T11:55:36.320Z,3.80
2022-08-17T11:58:25.251Z,4.20
2022-08-17T12:00:56.658Z,4.25
2022-08-17T12:03:34.670Z,3.90
2022-08-17T12:06:31.049Z,3.78
2022-08-17T12:09:16.733Z,4.18
2022-08-17T12:12:13.082Z,3.97
2022-08-17T12:17:40.356Z,3.90
2022-08-17T12:20:24.233Z,4.22
2022-08-17T12:23:10.063Z,3.75
2022-08-17T12:25:47.614Z,3.90
2022-08-17T12:28:27.492Z,4.13
2022-08-17T12:30:59.455Z,4.03
2022-08-17T12:33:28.848Z,3.90
2022-08-17T12:36:05.683Z,3.90
2022-08-17T12:38:36.372Z,4.00
2022-08-17T12:41:25.164Z,4.20
2022-08-17T12:44:04.413Z,4.00
2022-08-17T12:46:45.128Z,4.15
2022-08-17T12:49:25.363Z,3.97
2022-08-17T12:52:02.435Z,4.00
2022-08-17T12:54:37.507Z,4.00
2022-08-17T12:57:15.965Z,4.20
2022-08-17T12:59:48.812Z,4.57
2022-08-17T13:02:30.482Z,4.47
2022-08-17T13:05:01.041Z,4.13
2022-08-17T13:07:36.594Z,4.30
2022-08-17T13:10:04.487Z,4.22
2022-08-17T13:12:35.744Z,4.03
2022-08-17T13:15:03.935Z,4.00
2022-08-17T13:17:35.679Z,4.30
2022-08-17T13:20:06.861Z,4.30
2022-08-17T13:22:34.200Z,3.92
2022-08-17T13:25:09.493Z,4.03
2022-08-17T13:27:42.830Z,4.45
2022-08-17T13:30:12.648Z,4.00
2022-08-17T13:32:47.428Z,3.60
2022-08-17T13:35:41.425Z,4.18
2022-08-17T13:38:52.802Z,3.95
2022-08-17T13:41:35.337Z,4.05
2022-08-17T13:44:04.427Z,4.05
2022-08-17T13:46:33.275Z,3.80
2022-08-17T13:49:04.602Z,4.05
2022-08-17T13:51:36.480Z,3.70
2022-08-17T13:54:07.159Z,3.92
2022-08-17T13:56:53.556Z,3.72
2022-08-17T13:59:54.829Z,4.22
2022-08-17T14:02:27.759Z,3.80
2022-08-17T14:04:58.416Z,3.92
2022-08-17T14:07:32.600Z,3.67
2022-08-17T14:10:11.555Z,4.15
2022-08-17T14:12:41.917Z,3.72
2022-08-17T14:15:10.678Z,3.60
2022-08-17T14:17:39.191Z,3.72
2022-08-17T14:20:12.314Z,3.90
2022-08-17T14:22:44.829Z,3.72
2022-08-17T14:25:15.273Z,4.40
2022-08-17T14:27:52.428Z,3.80
2022-08-17T14:30:23.931Z,4.25
2022-08-17T14:32:52.291Z,3.95
2022-08-17T14:35:22.518Z,3.88
2022-08-17T14:37:51.045Z,4.32
2022-08-17T14:40:20.980Z,4.13
2022-08-17T14:42:48.645Z,4.18
2022-08-17T14:45:27.025Z,3.90
2022-08-17T14:48:04.271Z,3.67
2022-08-17T14:50:35.565Z,3.97
2022-08-17T14:53:05.710Z,3.78
2022-08-17T14:55:33.465Z,3.97
2022-08-17T14:58:01.064Z,3.80
2022-08-17T15:00:28.806Z,3.70
2022-08-17T15:02:58.872Z,3.80
2022-08-17T15:05:33.828Z,3.65
2022-08-17T15:08:02.872Z,3.63
2022-08-17T15:10:31.649Z,3.60
2022-08-17T15:13:00.126Z,3.58
2022-08-17T15:15:28.419Z,3.60
2022-08-17T15:17:56.428Z,3.72
2022-08-17T15:20:28.514Z,3.80
2022-08-17T15:22:57.631Z,3.42
2022-08-17T15:25:27.790Z,3.70
2022-08-17T15:27:56.089Z,3.67
2022-08-17T15:30:23.942Z,3.47
2022-08-17T15:32:55.276Z,3.47
2022-08-17T15:35:32.388Z,4.03
2022-08-17T15:38:08.015Z,3.45
2022-08-17T15:40:44.212Z,3.65
2022-08-17T15:43:34.742Z,4.38
2022-08-17T15:46:12.597Z,4.53
2022-08-17T15:48:42.348Z,4.25
2022-08-17T15:51:20.033Z,4.20
2022-08-17T15:53:53.512Z,4.05
2022-08-17T15:56:21.090Z,4.00
2022-08-17T15:58:49.937Z,4.22
2022-08-17T16:03:01.696Z,3.90
2022-08-17T16:04:26.510Z,4.47
2022-08-17T16:06:57.652Z,4.90
2022-08-17T16:09:24.877Z,4.53
2022-08-17T16:11:55.306Z,4.57
2022-08-17T16:14:24.505Z,4.43
2022-08-17T16:17:00.964Z,4.80
2022-08-17T16:19:28.318Z,4.68
2022-08-17T16:21:55.764Z,4.50
2022-08-17T16:24:23.162Z,4.55
2022-08-17T16:26:50.848Z,4.75
2022-08-17T16:29:18.092Z,5.32
2022-08-17T16:31:45.425Z,5.05
2022-08-17T16:34:17.371Z,5.18
2022-08-17T16:36:54.631Z,4.78
2022-08-17T16:39:24.851Z,4.80
2022-08-17T16:41:52.587Z,5.07
2022-08-17T16:44:21.525Z,4.70
2022-08-17T16:46:50.512Z,4.93
2022-08-17T16:49:32.436Z,4.93
2022-08-17T16:52:06.097Z,4.10
2022-08-17T16:54:35.673Z,4.55
2022-08-17T16:57:05.564Z,4.63
2022-08-17T16:59:42.120Z,4.35
2022-08-17T17:02:23.834Z,4.63
2022-08-17T17:05:01.553Z,4.30
2022-08-17T17:07:53.649Z,4.95
2022-08-17T17:10:26.719Z,4.88
2022-08-17T17:13:01.274Z,5.00
2022-08-17T17:15:45.577Z,5.00
2022-08-17T17:18:15.785Z,4.80
2022-08-17T17:21:01.658Z,4.97
2022-08-17T17:23:40.994Z,5.18
2022-08-17T17:26:20.742Z,5.57
2022-08-17T17:29:25.048Z,5.38
2022-08-17T17:32:29.736Z,5.50
2022-08-17T17:35:08.748Z,5.82
2022-08-17T17:37:36.524Z,5.70
2022-08-17T17:40:12.661Z,5.88
2022-08-17T17:42:43.209Z,5.97
2022-08-17T17:45:29.511Z,6.38
2022-08-17T17:47:57.353Z,6.40
2022-08-17T17:50:35.437Z,5.95
2022-08-17T17:53:10.756Z,6.22
2022-08-17T17:55:54.866Z,6.72
2022-08-17T17:58:52.356Z,5.82
2022-08-17T18:01:59.574Z,6.18
2022-08-17T18:04:37.650Z,6.10
2022-08-17T18:07:32.899Z,6.22
2022-08-17T18:10:19.720Z,6.65
2022-08-17T18:13:28.890Z,6.35
2022-08-17T18:16:00.878Z,6.70
2022-08-17T18:18:38.407Z,6.90
2022-08-17T18:21:20.062Z,6.63
2022-08-17T18:23:56.768Z,6.85
2022-08-17T18:26:33.488Z,6.95
2022-08-17T18:29:02.745Z,6.63
2022-08-17T18:31:30.079Z,6.90
2022-08-17T18:37:30.123Z,6.70
2022-08-17T18:39:57.406Z,6.60
2022-08-17T18:42:28.374Z,6.45
2022-08-17T18:44:56.495Z,6.18
2022-08-17T18:47:27.604Z,5.88
2022-08-17T18:50:27.178Z,6.38
2022-08-17T18:52:56.293Z,5.97
2022-08-17T18:55:29.204Z,6.07
2022-08-17T18:58:13.168Z,5.82
2022-08-17T19:00:42.947Z,5.80
2022-08-17T19:03:16.252Z,5.90
2022-08-17T19:05:52.301Z,5.57
2022-08-17T19:08:28.811Z,5.95
2022-08-17T19:10:58.034Z,6.18
2022-08-17T19:13:31.476Z,5.75
2022-08-17T19:16:16.076Z,5.53
2022-08-17T19:21:34.991Z,5.75
2022-08-17T19:24:19.800Z,5.82
2022-08-17T19:26:56.527Z,5.78
2022-08-17T19:29:42.689Z,5.22
2022-08-17T19:32:12.681Z,5.65
2022-08-17T19:34:42.679Z,5.80
2022-08-17T19:37:30.114Z,5.50
2022-08-17T19:40:51.830Z,6.03
2022-08-17T19:43:55.628Z,5.25
2022-08-17T19:46:35.995Z,5.90
2022-08-17T19:49:33.169Z,6.07
2022-08-17T19:52:32.830Z,5.70
2022-08-17T19:55:43.841Z,5.55
2022-08-17T19:58:43.317Z,5.82
2022-08-17T20:01:20.901Z,5.80
2022-08-17T20:04:01.527Z,5.20
2022-08-17T20:06:33.283Z,5.35
2022-08-17T20:09:46.620Z,5.80
2022-08-17T20:12:21.186Z,5.45
2022-08-17T20:14:55.777Z,5.53
2022-08-17T20:17:41.785Z,5.55
2022-08-17T20:20:36.280Z,6.03
2022-08-17T20:23:21.816Z,5.95
2022-08-17T20:26:10.191Z,5.45
2022-08-17T20:28:39.758Z,5.80
2022-08-17T20:31:46.527Z,5.50
2022-08-17T20:34:30.825Z,4.95
2022-08-17T20:37:28.046Z,5.25
2022-08-17T20:39:56.439Z,5.10
2022-08-17T20:42:23.591Z,5.47
2022-08-17T20:44:58.180Z,5.53
2022-08-17T20:48:14.614Z,5.10
2022-08-17T20:50:43.567Z,5.50
2022-08-17T20:53:15.198Z,5.20
2022-08-17T20:55:52.463Z,5.20
2022-08-17T20:58:46.686Z,5.22
2022-08-17T21:01:20.580Z,5.30
2022-08-17T21:03:51.825Z,5.45
2022-08-17T21:06:22.067Z,5.28
2022-08-17T21:08:55.288Z,5.15
2022-08-17T21:12:03.120Z,5.30
2022-08-17T21:14:37.558Z,5.40
2022-08-17T21:17:39.925Z,5.32
2022-08-17T21:20:27.815Z,5.18
2022-08-17T21:23:08.397Z,5.15
2022-08-17T21:26:30.169Z,5.80
2022-08-17T21:29:31.376Z,5.43
2022-08-17T21:32:00.869Z,5.50
2022-08-17T21:35:07.842Z,6.00
2022-08-17T21:37:44.137Z,6.07
2022-08-17T21:40:11.433Z,5.35
2022-08-17T21:42:47.925Z,5.60
2022-08-17T21:45:35.923Z,6.03
2022-08-17T21:48:09.110Z,5.53
2022-08-17T21:50:37.452Z,5.97
2022-08-17T21:53:05.850Z,6.05
2022-08-17T21:55:36.290Z,6.32
2022-08-17T21:58:27.424Z,6.32
2022-08-17T22:01:25.456Z,6.70
2022-08-17T22:04:11.551Z,6.35
2022-08-17T22:06:56.760Z,6.07
2022-08-17T22:09:34.787Z,5.82
2022-08-17T22:12:06.629Z,6.07
2022-08-17T22:14:53.471Z,6.20
2022-08-17T22:17:31.447Z,6.32
2022-08-17T22:20:06.242Z,6.40
2022-08-17T22:22:57.391Z,7.15
2022-08-17T22:25:27.257Z,7.00
2022-08-17T22:27:58.090Z,6.25
2022-08-17T22:30:27.691Z,6.57
2022-08-17T22:32:55.614Z,6.63
2022-08-17T22:35:34.972Z,7.18
2022-08-17T22:38:20.559Z,6.78
2022-08-17T22:41:19.509Z,6.82
2022-08-17T22:43:46.995Z,7.53
2022-08-17T22:46:15.642Z,8.18
2022-08-17T22:48:50.393Z,8.13
2022-08-17T22:51:28.547Z,8.60
2022-08-17T22:54:31.684Z,7.85
2022-08-17T22:57:21.646Z,8.35
2022-08-17T22:59:55.874Z,8.80
2022-08-17T23:02:35.545Z,9.25
2022-08-17T23:05:17.666Z,8.47
2022-08-17T23:07:46.820Z,8.27
2022-08-17T23:10:15.083Z,8.45
2022-08-17T23:12:43.558Z,8.45
2022-08-17T23:15:16.049Z,8.38
2022-08-17T23:17:49.770Z,9.02
2022-08-17T23:20:17.894Z,8.70
2022-08-17T23:22:52.177Z,8.27
2022-08-17T23:25:28.325Z,8.00
2022-08-17T23:27:57.543Z,9.52
2022-08-17T23:30:25.766Z,10.07
2022-08-17T23:32:54.477Z,10.80
2022-08-17T23:35:40.030Z,8.98
2022-08-17T23:38:12.636Z,10.63
2022-08-17T23:40:41.001Z,10.82
2022-08-17T23:43:24.425Z,11.00
2022-08-17T23:45:59.866Z,9.25
2022-08-17T23:48:35.377Z,8.73
2022-08-17T23:51:14.723Z,9.80
2022-08-17T23:53:47.456Z,8.70
2022-08-17T23:56:15.783Z,10.30
2022-08-17T23:58:47.858Z,11.57
